createdAt,value
2018-02-03T19:45:59.394Z,96406.91
2018-02-03T19:48:29.001Z,96404.78
2018-02-03T19:50:59.474Z,96413.91
2018-02-03T19:53:29.888Z,96414.96
2018-02-03T19:58:37.324Z,96421.31
2018-02-03T20:01:06.808Z,96427.44
2018-02-03T20:03:36.394Z,96424.27
2018-02-03T20:06:06.077Z,96436.31
2018-02-03T20:08:37.496Z,96430.77
2018-02-03T20:11:14.760Z,96435.75
2018-02-03T20:13:46.580Z,96435.66
2018-02-03T20:16:16.492Z,96444.52
2018-02-03T20:18:47.300Z,96441.59
2018-02-03T20:21:18.368Z,96442.08
2018-02-03T20:23:49.749Z,96445.05
2018-02-03T20:26:20.446Z,96442.89
2018-02-03T20:28:50.913Z,96444.21
2018-02-03T20:31:29.668Z,96446.64
2018-02-03T20:33:59.935Z,96447.83
2018-02-03T20:36:35.565Z,96446.52
2018-02-03T20:39:06.092Z,96450.20
2018-02-03T20:41:40.572Z,96448.73
2018-02-03T20:44:11.141Z,96445.32
2018-02-03T20:46:41.915Z,96450.73
2018-02-03T20:49:11.611Z,96454.81
2018-02-03T20:51:41.196Z,96456.25
2018-02-03T20:54:10.940Z,96457.50
2018-02-03T20:56:47.433Z,96455.94
2018-02-03T20:59:23.377Z,96461.30
2018-02-03T21:01:53.221Z,96461.60
2018-02-03T21:04:23.368Z,96472.37
2018-02-03T21:06:53.234Z,96466.51
2018-02-03T21:09:25.252Z,96474.89
2018-02-03T21:11:55.963Z,96470.69
2018-02-03T21:14:27.329Z,96466.48
2018-02-03T21:16:57.365Z,96477.80
2018-02-03T21:19:26.940Z,96475.45
2018-02-03T21:21:56.564Z,96481.38
2018-02-03T21:24:26.956Z,96486.58
2018-02-03T21:26:56.513Z,96489.73
2018-02-03T21:29:26.133Z,96481.89
2018-02-03T21:31:55.685Z,96485.16
2018-02-03T21:34:28.645Z,96483.52
2018-02-03T21:37:07.148Z,96479.52
2018-02-03T21:39:37.339Z,96482.84
2018-02-03T21:42:07.261Z,96494.06
2018-02-03T21:44:36.748Z,96491.80
2018-02-03T21:47:06.438Z,96482.85
2018-02-03T21:49:39.681Z,96492.36
2018-02-03T21:52:15.477Z,96495.70
2018-02-03T21:54:49.450Z,96493.45
2018-02-03T21:57:19.813Z,96492.38
2018-02-03T21:59:49.510Z,96491.78
2018-02-03T22:02:19.080Z,96489.22
2018-02-03T22:05:01.527Z,96487.27
2018-02-03T22:07:33.277Z,96496.97
2018-02-03T22:10:06.772Z,96490.57
2018-02-03T22:20:34.316Z,96505.66
2018-02-03T22:23:03.773Z,96499.31
2018-02-03T22:25:33.450Z,96503.67
2018-02-03T22:28:09.658Z,96507.58
2018-02-03T22:30:42.144Z,96506.69
2018-02-03T22:33:18.618Z,96511.39
2018-02-03T22:38:45.535Z,96511.74
2018-02-03T22:41:16.294Z,96515.03
2018-02-03T22:43:45.925Z,96506.42
2018-02-03T22:46:16.290Z,96509.38
2018-02-03T22:48:45.773Z,96517.50
2018-02-03T22:51:15.316Z,96516.20
2018-02-03T22:53:44.774Z,96522.22
2018-02-03T22:56:17.147Z,96526.87
2018-02-03T22:58:48.088Z,96523.66
2018-02-03T23:01:17.732Z,96520.78
2018-02-03T23:03:49.719Z,96525.09
2018-02-03T23:06:19.335Z,96523.45
2018-02-03T23:08:48.724Z,96524.03
2018-02-03T23:11:18.292Z,96521.19
2018-02-03T23:13:47.829Z,96526.16
2018-02-03T23:18:59.983Z,96521.66
2018-02-03T23:21:29.511Z,96524.52
2018-02-03T23:23:59.094Z,96533.03
2018-02-03T23:26:28.535Z,96538.39
2018-02-03T23:28:58.136Z,96531.60
2018-02-03T23:31:30.505Z,96539.53
2018-02-03T23:34:00.587Z,96538.69
2018-02-03T23:36:30.093Z,96538.70
2018-02-03T23:38:59.733Z,96536.86
2018-02-03T23:41:33.505Z,96544.02
2018-02-03T23:44:02.926Z,96544.52
2018-02-03T23:46:32.387Z,96546.56
2018-02-03T23:49:03.279Z,96551.31
2018-02-03T23:51:32.856Z,96550.83
2018-02-03T23:54:02.394Z,96549.06
2018-02-03T23:56:32.219Z,96550.12
2018-02-03T23:59:01.892Z,96548.56
